Time;durP1;ratioP1;P1;durP2;ratioP2;P2;SDS_P1;SDS_P2;PMS_P1;PMS_P2;Temp;Humidity;BMP_temperature;BMP_pressure;BME280_temperature;BME280_humidity;BME280_pressure;Samples;Min_cycle;Max_cycle;Signal;HPM_P1;HPM_P2
2021/07/22 00:00:12;;;;;;;9.23;8.18;;;;;;;;;;4993697;28;20273;-77
2021/07/22 00:02:39;;;;;;;10.73;7.93;;;;;;;;;;4999179;28;20231;-78
2021/07/22 00:05:08;;;;;;;9.43;7.72;;;;;;;;;;4998853;28;20222;-77
2021/07/22 00:07:37;;;;;;;8.90;7.68;;;;;;;;;;4992600;28;20697;-77
2021/07/22 00:10:04;;;;;;;8.88;7.95;;;;;;;;;;5008806;28;20347;-78
2021/07/22 00:12:32;;;;;;;10.65;8.05;;;;;;;;;;5012178;28;20236;-77
2021/07/22 00:14:59;;;;;;;8.38;7.57;;;;;;;;;;5012095;28;20263;-77
2021/07/22 00:17:26;;;;;;;10.05;7.45;;;;;;;;;;5008846;28;20997;-77
2021/07/22 00:19:53;;;;;;;8.98;8.05;;;;;;;;;;5002300;28;20739;-77
2021/07/22 00:22:20;;;;;;;8.70;7.80;;;;;;;;;;5011717;28;20236;-78
2021/07/22 00:24:49;;;;;;;8.43;7.63;;;;;;;;;;5011350;28;20755;-77
2021/07/22 00:27:17;;;;;;;11.75;7.80;;;;;;;;;;5011641;28;20299;-77
2021/07/22 00:29:44;;;;;;;9.88;7.47;;;;;;;;;;5011004;28;20201;-78
2021/07/22 00:32:12;;;;;;;8.85;7.95;;;;;;;;;;5007175;28;20291;-77
2021/07/22 00:34:39;;;;;;;8.85;8.00;;;;;;;;;;5006311;28;20209;-77
2021/07/22 00:37:06;;;;;;;11.05;7.93;;;;;;;;;;5008986;28;20292;-78
2021/07/22 00:39:36;;;;;;;11.10;7.68;;;;;;;;;;5000231;28;20197;-78
2021/07/22 00:42:05;;;;;;;9.27;7.75;;;;;;;;;;5002619;28;20650;-78
2021/07/22 00:44:32;;;;;;;9.38;7.28;;;;;;;;;;4992431;28;20722;-77
2021/07/22 00:46:59;;;;;;;10.75;8.18;;;;;;;;;;5006787;28;20315;-77
2021/07/22 00:49:26;;;;;;;8.93;7.53;;;;;;;;;;5011884;28;20292;-77
2021/07/22 00:51:54;;;;;;;8.68;7.65;;;;;;;;;;5010882;28;20284;-77
2021/07/22 00:54:21;;;;;;;8.20;7.40;;;;;;;;;;5010989;28;20750;-77
2021/07/22 00:56:48;;;;;;;9.73;7.72;;;;;;;;;;5011655;28;20197;-77
2021/07/22 00:59:17;;;;;;;11.35;7.55;;;;;;;;;;5010223;28;20223;-77
2021/07/22 01:01:44;;;;;;;9.02;7.68;;;;;;;;;;5015060;28;20292;-77
2021/07/22 01:04:11;;;;;;;9.43;8.32;;;;;;;;;;5014697;28;20292;-77
2021/07/22 01:06:39;;;;;;;8.57;7.68;;;;;;;;;;5015260;28;20328;-77
2021/07/22 01:09:06;;;;;;;9.18;7.68;;;;;;;;;;5009255;28;20237;-77
2021/07/22 01:11:33;;;;;;;8.88;7.97;;;;;;;;;;5005584;28;20293;-77
2021/07/22 01:14:00;;;;;;;8.90;8.00;;;;;;;;;;5015129;28;20292;-77
2021/07/22 01:16:29;;;;;;;9.13;8.23;;;;;;;;;;5014169;28;20304;-77
2021/07/22 01:18:56;;;;;;;11.52;8.15;;;;;;;;;;5014166;28;20235;-77
2021/07/22 01:21:25;;;;;;;8.93;8.02;;;;;;;;;;4995358;28;20241;-77
2021/07/22 01:23:52;;;;;;;11.87;9.00;;;;;;;;;;4995342;28;20201;-77
2021/07/22 01:26:20;;;;;;;9.70;8.37;;;;;;;;;;5005389;28;20316;-77
2021/07/22 01:28:47;;;;;;;14.00;8.63;;;;;;;;;;5015125;28;20750;-77
2021/07/22 01:31:14;;;;;;;9.60;8.57;;;;;;;;;;5007192;28;20208;-77
2021/07/22 01:33:42;;;;;;;9.90;8.33;;;;;;;;;;5012715;28;20297;-77
2021/07/22 01:36:09;;;;;;;10.67;8.13;;;;;;;;;;5004395;28;20202;-77
2021/07/22 01:38:38;;;;;;;10.30;8.70;;;;;;;;;;5012448;28;20315;-77
2021/07/22 01:41:05;;;;;;;12.45;8.77;;;;;;;;;;4995342;28;20274;-77
2021/07/22 01:43:32;;;;;;;10.83;8.37;;;;;;;;;;4994667;28;20289;-78
2021/07/22 01:46:00;;;;;;;9.87;8.87;;;;;;;;;;4994744;28;20229;-77
2021/07/22 01:48:27;;;;;;;11.00;8.57;;;;;;;;;;4994393;28;20233;-77
2021/07/22 01:50:54;;;;;;;10.03;8.63;;;;;;;;;;4995956;28;20288;-77
2021/07/22 01:53:21;;;;;;;10.90;8.67;;;;;;;;;;5013049;28;20219;-77
2021/07/22 01:55:49;;;;;;;10.37;9.27;;;;;;;;;;5014411;28;20376;-77
2021/07/22 01:58:17;;;;;;;10.67;8.83;;;;;;;;;;5002718;28;20202;-77
2021/07/22 02:00:44;;;;;;;9.80;8.80;;;;;;;;;;4994556;28;20289;-77
2021/07/22 02:03:11;;;;;;;11.43;8.70;;;;;;;;;;4995079;28;20284;-77
2021/07/22 02:05:38;;;;;;;10.83;9.27;;;;;;;;;;4994488;28;20228;-77
2021/07/22 02:08:05;;;;;;;9.73;8.60;;;;;;;;;;4994385;28;20308;-77
2021/07/22 02:10:32;;;;;;;10.47;9.17;;;;;;;;;;4993672;28;20304;-77
2021/07/22 02:13:01;;;;;;;11.53;9.27;;;;;;;;;;5003435;28;20904;-77
2021/07/22 02:15:28;;;;;;;12.47;9.70;;;;;;;;;;5013859;28;20288;-77
2021/07/22 02:17:55;;;;;;;13.77;9.63;;;;;;;;;;5003513;28;20202;-77
2021/07/22 02:20:23;;;;;;;11.17;9.00;;;;;;;;;;5007825;28;20756;-77
2021/07/22 02:22:50;;;;;;;10.30;9.20;;;;;;;;;;5004619;28;20202;-77
2021/07/22 02:25:17;;;;;;;10.40;9.30;;;;;;;;;;4995736;28;20205;-77
2021/07/22 02:27:45;;;;;;;11.73;9.90;;;;;;;;;;5012665;28;20288;-77
2021/07/22 02:30:14;;;;;;;10.83;9.40;;;;;;;;;;5012639;28;20199;-77
2021/07/22 02:32:41;;;;;;;11.37;9.87;;;;;;;;;;5006931;28;20206;-77
2021/07/22 02:35:09;;;;;;;11.80;9.40;;;;;;;;;;5009286;28;20208;-78
2021/07/22 02:37:36;;;;;;;10.13;9.10;;;;;;;;;;5012505;28;20201;-77
2021/07/22 02:40:03;;;;;;;12.83;10.73;;;;;;;;;;5013092;28;20241;-77
2021/07/22 02:42:30;;;;;;;11.23;9.47;;;;;;;;;;5007767;28;20717;-77
2021/07/22 02:44:57;;;;;;;11.90;10.23;;;;;;;;;;5006290;28;20296;-77
2021/07/22 02:47:27;;;;;;;11.17;9.80;;;;;;;;;;4998207;28;20639;-77
2021/07/22 02:49:54;;;;;;;13.33;9.93;;;;;;;;;;5013083;28;20227;-77
2021/07/22 02:52:21;;;;;;;11.03;9.93;;;;;;;;;;5012298;28;20661;-77
2021/07/22 02:54:48;;;;;;;10.57;9.53;;;;;;;;;;5012715;28;20209;-77
2021/07/22 02:57:15;;;;;;;10.80;9.63;;;;;;;;;;5013041;28;20292;-77
2021/07/22 02:59:43;;;;;;;12.37;10.27;;;;;;;;;;5012835;28;20288;-77
2021/07/22 03:02:10;;;;;;;11.67;10.43;;;;;;;;;;5012807;28;20291;-77
2021/07/22 03:04:39;;;;;;;11.47;10.27;;;;;;;;;;5004167;28;20288;-77
2021/07/22 03:07:06;;;;;;;11.60;10.23;;;;;;;;;;5009869;28;20217;-77
2021/07/22 03:09:33;;;;;;;11.13;10.00;;;;;;;;;;5002998;28;20236;-76
2021/07/22 03:12:00;;;;;;;11.47;10.20;;;;;;;;;;4995539;28;20288;-77
2021/07/22 03:14:27;;;;;;;14.77;10.50;;;;;;;;;;5010267;28;20863;-77
2021/07/22 03:16:55;;;;;;;13.40;10.37;;;;;;;;;;4997377;28;20641;-77
2021/07/22 03:19:22;;;;;;;12.97;10.77;;;;;;;;;;5010138;28;20749;-77
2021/07/22 03:21:50;;;;;;;13.97;11.30;;;;;;;;;;5011244;28;20224;-77
2021/07/22 03:24:18;;;;;;;11.63;10.37;;;;;;;;;;5011845;28;20232;-77
2021/07/22 03:26:45;;;;;;;13.10;11.33;;;;;;;;;;5011625;28;20238;-77
2021/07/22 03:29:12;;;;;;;12.47;11.13;;;;;;;;;;5012350;28;20352;-77
2021/07/22 03:31:39;;;;;;;12.57;11.27;;;;;;;;;;5012803;28;20383;-76
2021/07/22 03:34:07;;;;;;;13.33;11.00;;;;;;;;;;5007560;28;20280;-76
2021/07/22 03:36:34;;;;;;;12.90;11.37;;;;;;;;;;5012245;28;20771;-77
2021/07/22 03:39:02;;;;;;;14.40;11.03;;;;;;;;;;5008029;28;20687;-76
2021/07/22 03:41:29;;;;;;;15.10;11.77;;;;;;;;;;5012221;28;20278;-76
2021/07/22 03:43:57;;;;;;;15.67;11.50;;;;;;;;;;5011447;28;20288;-76
2021/07/22 03:46:24;;;;;;;14.30;11.80;;;;;;;;;;5011956;28;20221;-75
2021/07/22 03:48:51;;;;;;;13.03;11.47;;;;;;;;;;5012086;28;20200;-75
2021/07/22 03:51:18;;;;;;;13.20;11.57;;;;;;;;;;5001357;28;20201;-75
2021/07/22 03:53:45;;;;;;;13.10;11.47;;;;;;;;;;4994220;28;20296;-75
2021/07/22 03:56:14;;;;;;;13.60;11.47;;;;;;;;;;5000797;28;20298;-75
2021/07/22 03:58:41;;;;;;;14.70;11.67;;;;;;;;;;4997314;28;20313;-75
2021/07/22 04:01:08;;;;;;;13.23;11.37;;;;;;;;;;5003596;28;20208;-75
2021/07/22 04:03:38;;;;;;;13.80;11.40;;;;;;;;;;4991413;28;20750;-76
2021/07/22 04:06:05;;;;;;;15.67;12.50;;;;;;;;;;4993584;28;20749;-76
2021/07/22 04:08:32;;;;;;;14.67;11.83;;;;;;;;;;5001614;28;20349;-76
2021/07/22 04:11:02;;;;;;;17.63;12.30;;;;;;;;;;5011325;28;20201;-76
2021/07/22 04:13:30;;;;;;;13.47;11.90;;;;;;;;;;5010978;28;20259;-76
2021/07/22 04:15:57;;;;;;;14.93;12.30;;;;;;;;;;5011311;28;20288;-76
2021/07/22 04:18:24;;;;;;;15.00;11.83;;;;;;;;;;5011580;28;20292;-75
2021/07/22 04:20:52;;;;;;;13.63;10.70;;;;;;;;;;5011323;28;20208;-75
2021/07/22 04:23:19;;;;;;;15.47;11.83;;;;;;;;;;5011486;28;20288;-75
2021/07/22 04:25:46;;;;;;;15.87;11.90;;;;;;;;;;5011170;28;20292;-76
2021/07/22 04:28:13;;;;;;;16.63;12.07;;;;;;;;;;5011872;28;20233;-75
2021/07/22 04:30:42;;;;;;;12.90;11.60;;;;;;;;;;5011734;28;20303;-76
2021/07/22 04:33:10;;;;;;;16.57;12.33;;;;;;;;;;5011780;28;20297;-75
2021/07/22 04:35:37;;;;;;;16.03;12.43;;;;;;;;;;5014950;28;20241;-75
2021/07/22 04:38:04;;;;;;;14.87;12.33;;;;;;;;;;5015772;28;20251;-75
2021/07/22 04:40:31;;;;;;;14.13;12.63;;;;;;;;;;5015432;28;20260;-75
2021/07/22 04:43:01;;;;;;;13.73;12.33;;;;;;;;;;5015510;28;20211;-76
2021/07/22 04:45:28;;;;;;;14.60;12.63;;;;;;;;;;5014420;28;20293;-75
2021/07/22 04:47:57;;;;;;;14.27;12.70;;;;;;;;;;5015056;28;20316;-75
2021/07/22 04:50:24;;;;;;;13.17;11.87;;;;;;;;;;5015509;28;20205;-76
2021/07/22 04:52:51;;;;;;;14.60;12.10;;;;;;;;;;5015110;28;20197;-76
2021/07/22 04:55:18;;;;;;;14.33;11.97;;;;;;;;;;5015336;28;20287;-75
2021/07/22 04:57:45;;;;;;;13.97;12.40;;;;;;;;;;4999788;28;20292;-75
2021/07/22 05:00:13;;;;;;;14.00;11.63;;;;;;;;;;4995655;28;20239;-75
2021/07/22 05:02:42;;;;;;;14.43;12.53;;;;;;;;;;4995216;28;20264;-75
2021/07/22 05:05:11;;;;;;;13.27;11.70;;;;;;;;;;4995333;28;20229;-76
2021/07/22 05:07:38;;;;;;;16.80;12.67;;;;;;;;;;4994866;28;20312;-76
2021/07/22 05:10:06;;;;;;;13.93;12.43;;;;;;;;;;4995110;28;20245;-75
2021/07/22 05:12:33;;;;;;;13.80;12.13;;;;;;;;;;4995213;28;20212;-76
2021/07/22 05:15:02;;;;;;;15.53;12.53;;;;;;;;;;4994847;28;20674;-75
2021/07/22 05:17:29;;;;;;;15.40;12.73;;;;;;;;;;4995183;28;20289;-75
2021/07/22 05:19:56;;;;;;;14.37;12.87;;;;;;;;;;4995021;28;20204;-76
2021/07/22 05:22:24;;;;;;;16.17;12.97;;;;;;;;;;4994660;28;20210;-75
2021/07/22 05:24:52;;;;;;;15.30;12.80;;;;;;;;;;4995222;28;20198;-75
2021/07/22 05:27:19;;;;;;;17.00;11.67;;;;;;;;;;5001893;28;20328;-75
2021/07/22 05:29:46;;;;;;;14.83;12.07;;;;;;;;;;5014296;28;20205;-76
2021/07/22 05:32:15;;;;;;;12.63;11.33;;;;;;;;;;5014545;28;20295;-76
2021/07/22 05:34:42;;;;;;;15.67;12.03;;;;;;;;;;5014545;28;20236;-75
2021/07/22 05:37:10;;;;;;;14.88;10.90;;;;;;;;;;5014166;28;20303;-75
2021/07/22 05:39:39;;;;;;;15.20;11.27;;;;;;;;;;5014769;28;20247;-76
2021/07/22 05:42:06;;;;;;;12.40;10.95;;;;;;;;;;5014349;28;20232;-75
2021/07/22 05:44:34;;;;;;;13.80;10.20;;;;;;;;;;5014572;28;20284;-75
2021/07/22 05:47:01;;;;;;;12.13;10.00;;;;;;;;;;5013175;28;20312;-76
2021/07/22 05:49:29;;;;;;;12.43;10.65;;;;;;;;;;5014196;28;20201;-76
2021/07/22 05:51:56;;;;;;;10.93;9.82;;;;;;;;;;5013495;28;20201;-76
2021/07/22 05:54:23;;;;;;;14.48;10.30;;;;;;;;;;5013917;28;20244;-76
2021/07/22 05:56:52;;;;;;;10.60;9.50;;;;;;;;;;5014363;28;20259;-76
2021/07/22 05:59:19;;;;;;;10.30;8.77;;;;;;;;;;5013483;28;20308;-76
2021/07/22 06:01:46;;;;;;;11.07;9.30;;;;;;;;;;5014154;28;20233;-76
2021/07/22 06:04:13;;;;;;;11.38;9.63;;;;;;;;;;5013854;28;20680;-76
2021/07/22 06:06:43;;;;;;;9.70;8.70;;;;;;;;;;5013567;28;20292;-76
2021/07/22 06:09:10;;;;;;;10.82;8.82;;;;;;;;;;5013508;28;20263;-76
2021/07/22 06:11:37;;;;;;;9.90;8.90;;;;;;;;;;5014125;28;20200;-77
2021/07/22 06:14:06;;;;;;;10.07;9.05;;;;;;;;;;5013280;28;20639;-76
2021/07/22 06:16:34;;;;;;;12.38;9.15;;;;;;;;;;5013549;28;20205;-76
2021/07/22 06:19:01;;;;;;;16.15;9.32;;;;;;;;;;5013569;28;20292;-76
2021/07/22 06:21:28;;;;;;;12.30;8.63;;;;;;;;;;5013442;28;20296;-76
2021/07/22 06:23:55;;;;;;;12.77;8.50;;;;;;;;;;5013227;28;20211;-77
2021/07/22 06:26:23;;;;;;;9.70;8.43;;;;;;;;;;5013552;28;20205;-76
2021/07/22 06:28:50;;;;;;;10.85;8.50;;;;;;;;;;5013392;28;20220;-77
2021/07/22 06:31:18;;;;;;;12.02;8.80;;;;;;;;;;5013005;28;20610;-77
2021/07/22 06:33:45;;;;;;;11.60;8.93;;;;;;;;;;5013235;28;20291;-77
2021/07/22 06:36:13;;;;;;;9.60;8.38;;;;;;;;;;5011788;28;20288;-77
2021/07/22 06:38:40;;;;;;;11.82;8.88;;;;;;;;;;5013148;28;20197;-76
2021/07/22 06:41:07;;;;;;;10.85;8.75;;;;;;;;;;5013131;28;20292;-76
2021/07/22 06:43:34;;;;;;;12.63;8.77;;;;;;;;;;5013340;28;20209;-76
2021/07/22 06:46:01;;;;;;;11.25;8.48;;;;;;;;;;5013032;28;20292;-77
2021/07/22 06:48:30;;;;;;;10.90;8.95;;;;;;;;;;5013270;28;20391;-76
2021/07/22 06:50:57;;;;;;;11.73;8.80;;;;;;;;;;5012727;28;20400;-77
2021/07/22 06:53:24;;;;;;;12.48;9.27;;;;;;;;;;5013118;28;20229;-76
2021/07/22 06:55:54;;;;;;;10.88;8.88;;;;;;;;;;5013000;28;20233;-77
2021/07/22 06:58:21;;;;;;;12.13;8.60;;;;;;;;;;5001782;28;20205;-76
2021/07/22 07:00:49;;;;;;;10.20;8.32;;;;;;;;;;4993395;28;20289;-77
2021/07/22 07:03:16;;;;;;;8.82;7.93;;;;;;;;;;4992708;28;20268;-77
2021/07/22 07:05:44;;;;;;;11.68;8.98;;;;;;;;;;4993393;28;20308;-77
2021/07/22 07:08:12;;;;;;;11.52;9.05;;;;;;;;;;4992763;28;20236;-77
2021/07/22 07:10:39;;;;;;;17.45;9.15;;;;;;;;;;4993024;28;20243;-77
2021/07/22 07:13:06;;;;;;;13.63;9.23;;;;;;;;;;4992942;28;20288;-77
2021/07/22 07:15:33;;;;;;;10.77;9.23;;;;;;;;;;4993558;28;20233;-77
2021/07/22 07:18:03;;;;;;;13.23;9.35;;;;;;;;;;4991358;28;20587;-77
2021/07/22 07:20:30;;;;;;;15.45;9.23;;;;;;;;;;4993213;28;20229;-77
2021/07/22 07:22:58;;;;;;;10.70;9.50;;;;;;;;;;4993103;28;20284;-77
2021/07/22 07:25:26;;;;;;;15.48;9.85;;;;;;;;;;4992872;28;20289;-77
2021/07/22 07:27:53;;;;;;;11.18;9.65;;;;;;;;;;4992918;28;20231;-77
2021/07/22 07:30:20;;;;;;;11.60;9.73;;;;;;;;;;5004774;28;20209;-77
2021/07/22 07:32:48;;;;;;;14.80;9.32;;;;;;;;;;5011934;28;20201;-77
2021/07/22 07:35:16;;;;;;;14.93;9.90;;;;;;;;;;5012377;28;20205;-77
2021/07/22 07:37:43;;;;;;;12.25;9.88;;;;;;;;;;5012557;28;20284;-77
2021/07/22 07:40:12;;;;;;;14.15;9.30;;;;;;;;;;5012229;28;20224;-77
2021/07/22 07:42:40;;;;;;;14.50;9.88;;;;;;;;;;5012251;28;20208;-78
2021/07/22 07:45:08;;;;;;;11.57;9.48;;;;;;;;;;5012202;28;20630;-77
2021/07/22 07:47:35;;;;;;;14.13;10.10;;;;;;;;;;5011865;28;20283;-77
2021/07/22 07:50:02;;;;;;;11.45;9.65;;;;;;;;;;5012054;28;20308;-77
2021/07/22 07:52:29;;;;;;;13.88;10.23;;;;;;;;;;5012159;28;20208;-78
2021/07/22 07:54:57;;;;;;;14.77;9.65;;;;;;;;;;5012264;28;20292;-77
2021/07/22 07:57:26;;;;;;;11.35;9.82;;;;;;;;;;5011688;28;20591;-77
2021/07/22 07:59:53;;;;;;;15.75;9.93;;;;;;;;;;5012194;28;20284;-77
2021/07/22 08:02:20;;;;;;;12.80;9.93;;;;;;;;;;5011407;28;20288;-77
2021/07/22 08:04:47;;;;;;;13.55;9.95;;;;;;;;;;5011803;28;20748;-77
2021/07/22 08:07:14;;;;;;;11.98;9.65;;;;;;;;;;5011957;28;20205;-77
2021/07/22 08:09:44;;;;;;;12.65;10.02;;;;;;;;;;5011080;28;20327;-77
2021/07/22 08:12:11;;;;;;;14.45;9.98;;;;;;;;;;5012006;28;20212;-77
2021/07/22 08:14:41;;;;;;;13.73;10.07;;;;;;;;;;5011943;28;20395;-77
2021/07/22 08:17:08;;;;;;;13.35;10.27;;;;;;;;;;5011699;28;20193;-77
2021/07/22 08:19:36;;;;;;;13.68;10.05;;;;;;;;;;5011908;28;20228;-77
2021/07/22 08:22:04;;;;;;;16.00;10.75;;;;;;;;;;5012024;28;20233;-77
2021/07/22 08:24:31;;;;;;;14.00;9.93;;;;;;;;;;5011718;28;20293;-77
2021/07/22 08:26:58;;;;;;;11.23;9.93;;;;;;;;;;5011905;28;20295;-77
2021/07/22 08:29:25;;;;;;;12.63;10.48;;;;;;;;;;5011790;28;20220;-77
2021/07/22 08:31:54;;;;;;;13.65;10.23;;;;;;;;;;5011643;28;20227;-77
2021/07/22 08:34:22;;;;;;;14.82;10.02;;;;;;;;;;5011659;28;20288;-77
2021/07/22 08:36:50;;;;;;;12.82;10.48;;;;;;;;;;5011530;28;20296;-77
2021/07/22 08:39:17;;;;;;;12.32;9.70;;;;;;;;;;5011835;28;20244;-77
2021/07/22 08:41:46;;;;;;;14.10;10.73;;;;;;;;;;5011670;28;20292;-77
2021/07/22 08:44:13;;;;;;;12.98;10.82;;;;;;;;;;5011984;28;20655;-77
2021/07/22 08:46:42;;;;;;;14.10;10.43;;;;;;;;;;5011381;28;20197;-77
2021/07/22 08:49:10;;;;;;;14.15;11.35;;;;;;;;;;5011536;28;20236;-77
2021/07/22 08:51:38;;;;;;;13.35;9.98;;;;;;;;;;5011493;28;20555;-77
2021/07/22 08:54:05;;;;;;;12.90;9.93;;;;;;;;;;5011661;28;20768;-77
2021/07/22 08:56:33;;;;;;;16.60;10.68;;;;;;;;;;5011349;28;20300;-77
2021/07/22 08:59:01;;;;;;;15.43;10.20;;;;;;;;;;5009397;28;20624;-78
2021/07/22 09:01:30;;;;;;;14.40;10.50;;;;;;;;;;4991686;28;20753;-77
2021/07/22 09:03:58;;;;;;;13.35;10.05;;;;;;;;;;4991851;28;20300;-77
2021/07/22 09:06:27;;;;;;;12.48;9.90;;;;;;;;;;4992277;28;20239;-78
2021/07/22 09:08:55;;;;;;;12.48;10.80;;;;;;;;;;4991479;28;20240;-77
2021/07/22 09:11:22;;;;;;;14.07;10.68;;;;;;;;;;4992049;28;20210;-77
2021/07/22 09:14:04;;;;;;;13.75;9.75;;;;;;;;;;4991555;28;20296;-77
2021/07/22 09:16:38;;;;;;;11.55;9.73;;;;;;;;;;4991499;28;20204;-77
2021/07/22 09:19:05;;;;;;;11.20;10.07;;;;;;;;;;4991944;28;20289;-77
2021/07/22 09:21:33;;;;;;;11.88;10.02;;;;;;;;;;4992920;28;20209;-77
2021/07/22 09:24:08;;;;;;;10.73;9.63;;;;;;;;;;4995211;28;20233;-77
2021/07/22 09:26:36;;;;;;;12.52;9.85;;;;;;;;;;4994908;28;20206;-77
2021/07/22 09:29:07;;;;;;;12.23;9.90;;;;;;;;;;4994912;28;20218;-77
2021/07/22 09:31:34;;;;;;;11.23;10.02;;;;;;;;;;5007992;28;20217;-77
2021/07/22 09:34:01;;;;;;;12.15;9.60;;;;;;;;;;5014556;28;20289;-77
2021/07/22 09:36:33;;;;;;;11.23;9.45;;;;;;;;;;5014423;28;20656;-77
2021/07/22 09:39:16;;;;;;;11.43;9.43;;;;;;;;;;5014236;28;20197;-77
2021/07/22 09:41:44;;;;;;;10.55;9.55;;;;;;;;;;5014355;28;20288;-77
2021/07/22 09:44:27;;;;;;;12.02;9.63;;;;;;;;;;5014128;28;20201;-77
2021/07/22 09:46:54;;;;;;;15.02;9.80;;;;;;;;;;5013071;28;20197;-78
2021/07/22 09:49:21;;;;;;;13.52;10.18;;;;;;;;;;5014217;28;20763;-77
2021/07/22 09:51:50;;;;;;;11.95;10.10;;;;;;;;;;5013828;28;20708;-78
2021/07/22 09:54:17;;;;;;;10.90;9.40;;;;;;;;;;5014320;28;20691;-77
2021/07/22 09:56:44;;;;;;;11.15;9.95;;;;;;;;;;5013918;28;20744;-77
2021/07/22 09:59:11;;;;;;;10.70;9.60;;;;;;;;;;5013711;28;20197;-77
2021/07/22 10:01:43;;;;;;;10.63;9.52;;;;;;;;;;4999378;28;20300;-77
2021/07/22 10:04:11;;;;;;;11.82;9.32;;;;;;;;;;4994341;28;20204;-77
2021/07/22 10:06:39;;;;;;;11.88;9.57;;;;;;;;;;4994177;28;20656;-78
2021/07/22 10:09:08;;;;;;;11.48;9.25;;;;;;;;;;4994173;28;20320;-78
2021/07/22 10:11:35;;;;;;;10.10;9.05;;;;;;;;;;4994416;28;20288;-77
2021/07/22 10:14:03;;;;;;;12.48;9.48;;;;;;;;;;4993861;28;20605;-78
2021/07/22 10:16:31;;;;;;;11.15;9.07;;;;;;;;;;4994546;28;20292;-77
2021/07/22 10:19:00;;;;;;;10.40;9.30;;;;;;;;;;4994425;28;20288;-78
2021/07/22 10:21:27;;;;;;;11.98;9.32;;;;;;;;;;4994329;28;20292;-78
2021/07/22 10:23:55;;;;;;;11.57;9.25;;;;;;;;;;4994097;28;20211;-78
2021/07/22 10:26:23;;;;;;;10.68;9.05;;;;;;;;;;4993701;28;20613;-77
2021/07/22 10:28:51;;;;;;;13.25;9.32;;;;;;;;;;4994076;28;20224;-78
2021/07/22 10:31:18;;;;;;;11.10;9.30;;;;;;;;;;4996026;28;20202;-77
2021/07/22 10:33:46;;;;;;;10.02;8.95;;;;;;;;;;5012882;28;20228;-78
2021/07/22 10:36:13;;;;;;;10.35;9.07;;;;;;;;;;5013280;28;20288;-77
2021/07/22 10:38:45;;;;;;;9.50;8.60;;;;;;;;;;5013183;28;20292;-78
2021/07/22 10:41:33;;;;;;;9.55;8.55;;;;;;;;;;5013244;28;20201;-77
2021/07/22 10:44:02;;;;;;;10.63;8.23;;;;;;;;;;5013135;28;20292;-77
2021/07/22 10:46:52;;;;;;;10.68;8.60;;;;;;;;;;5013448;28;20291;-77
2021/07/22 10:49:19;;;;;;;11.73;8.55;;;;;;;;;;5013016;28;20770;-77
2021/07/22 10:51:46;;;;;;;9.98;8.27;;;;;;;;;;5013158;28;20197;-77
2021/07/22 10:54:28;;;;;;;12.40;9.63;;;;;;;;;;5013043;28;20561;-78
2021/07/22 10:56:55;;;;;;;11.52;8.35;;;;;;;;;;5012858;28;20755;-77
2021/07/22 10:59:37;;;;;;;10.63;8.38;;;;;;;;;;5013159;28;20192;-78
2021/07/22 11:02:06;;;;;;;10.10;7.97;;;;;;;;;;4987640;28;20296;-78
2021/07/22 11:04:43;;;;;;;9.35;8.32;;;;;;;;;;4993294;28;20347;-77
2021/07/22 11:07:28;;;;;;;8.90;7.82;;;;;;;;;;4993191;28;20233;-78
2021/07/22 11:09:58;;;;;;;9.75;8.30;;;;;;;;;;4992678;28;20280;-78
2021/07/22 11:12:38;;;;;;;8.70;7.80;;;;;;;;;;4993301;28;20201;-78
2021/07/22 11:15:06;;;;;;;9.63;8.00;;;;;;;;;;4992626;28;20209;-77
2021/07/22 11:17:35;;;;;;;9.63;8.60;;;;;;;;;;4993010;28;20204;-77
2021/07/22 11:20:21;;;;;;;12.60;8.65;;;;;;;;;;4991331;28;20301;-77
2021/07/22 11:22:49;;;;;;;8.60;7.78;;;;;;;;;;4993237;28;20296;-78
2021/07/22 11:25:18;;;;;;;9.23;8.32;;;32.90;99.50;;;;;;4992356;28;20288;-77
2021/07/22 11:27:45;;;;;;;8.75;7.80;;;33.40;98.30;;;;;;4991657;28;20741;-77
2021/07/22 11:30:12;;;;;;;12.85;8.75;;;34.80;99.30;;;;;;4992836;28;20236;-77
2021/07/22 11:32:40;;;;;;;12.88;8.27;;;34.10;99.90;;;;;;4999152;28;20829;-77
2021/07/22 11:35:09;;;;;;;9.95;7.88;;;33.40;99.90;;;;;;5012146;28;20263;-78
2021/07/22 11:37:36;;;;;;;11.48;7.80;;;34.10;99.90;;;;;;5012794;28;20240;-78
2021/07/22 11:40:07;;;;;;;10.68;7.03;;;33.60;99.90;;;;;;5012224;28;20235;-77
2021/07/22 11:42:46;;;;;;;7.85;6.97;;;33.60;99.90;;;;;;5012628;28;20223;-77
2021/07/22 11:45:13;;;;;;;10.25;7.43;;;33.80;99.90;;;;;;5011371;28;20197;-77
2021/07/22 11:47:42;;;;;;;9.73;7.30;;;33.40;99.90;;;;;;5012290;28;20197;-77
2021/07/22 11:50:09;;;;;;;9.77;7.70;;;34.00;99.90;;;;;;5012218;28;20225;-77
2021/07/22 11:52:36;;;;;;;10.23;7.65;;;34.60;99.90;;;;;;5012042;28;20696;-77
2021/07/22 11:55:05;;;;;;;10.07;7.35;;;34.40;99.90;;;;;;5011919;28;20211;-77
2021/07/22 11:57:36;;;;;;;13.05;7.57;;;33.80;99.90;;;;;;5012151;28;20201;-77
2021/07/22 12:00:13;;;;;;;10.43;8.00;;;34.00;99.90;;;;;;5011179;28;20284;-77
2021/07/22 12:02:44;;;;;;;10.65;7.22;;;33.40;99.90;;;;;;5010636;28;20295;-78
2021/07/22 12:05:11;;;;;;;11.27;7.20;;;34.00;99.90;;;;;;5011760;28;20201;-77
2021/07/22 12:07:38;;;;;;;11.18;7.70;;;33.90;99.90;;;;;;5011868;28;20288;-77
2021/07/22 12:10:07;;;;;;;9.20;7.25;;;34.30;99.90;;;;;;5011765;28;20798;-77
2021/07/22 12:12:33;;;;;;;9.63;7.20;;;34.60;99.90;;;;;;5010837;28;20288;-77
2021/07/22 12:15:05;;;;;;;10.13;7.90;;;34.60;99.90;;;;;;5012295;28;20619;-77
2021/07/22 12:17:32;;;;;;;11.15;7.63;;;34.60;99.90;;;;;;5012284;28;20300;-77
2021/07/22 12:20:00;;;;;;;8.55;7.32;;;33.80;99.90;;;;;;5012452;28;20199;-77
2021/07/22 12:22:29;;;;;;;9.80;6.90;;;34.60;99.90;;;;;;5011781;28;20228;-77
2021/07/22 12:25:08;;;;;;;8.32;6.95;;;34.90;99.90;;;;;;4993436;28;20226;-78
2021/07/22 12:27:36;;;;;;;9.98;7.65;;;35.30;99.90;;;;;;4992086;28;20237;-77
2021/07/22 12:30:05;;;;;;;8.48;7.57;;;34.80;99.90;;;;;;4991940;28;20312;-77
2021/07/22 12:32:34;;;;;;;9.32;6.93;;;35.60;99.90;;;;;;4991793;28;20292;-77
2021/07/22 12:35:02;;;;;;;10.30;7.20;;;35.40;99.90;;;;;;5009126;28;20286;-77
2021/07/22 12:37:58;;;;;;;9.40;7.18;;;35.90;99.90;;;;;;5011452;28;20295;-77
2021/07/22 12:40:36;;;;;;;7.65;6.95;;;34.40;99.90;;;;;;5011255;28;20615;-77
2021/07/22 12:43:03;;;;;;;8.18;6.90;;;33.20;99.90;;;;;;5011388;28;20617;-77
2021/07/22 12:45:31;;;;;;;8.45;7.00;;;32.00;99.90;;;;;;5009585;28;20203;-77
2021/07/22 12:47:58;;;;;;;10.35;7.00;;;31.90;99.90;;;;;;5011437;28;20743;-77
2021/07/22 12:50:34;;;;;;;7.78;6.90;;;33.10;99.90;;;;;;5009933;28;20804;-77
2021/07/22 12:53:03;;;;;;;8.40;6.45;;;35.00;99.90;;;;;;5011520;28;20291;-77
2021/07/22 12:55:31;;;;;;;7.15;5.97;;;35.70;99.90;;;;;;5013073;28;20205;-77
2021/07/22 12:57:58;;;;;;;7.35;6.60;;;35.90;99.90;;;;;;5014170;28;20213;-77
2021/07/22 13:00:25;;;;;;;8.25;6.45;;;35.40;98.70;;;;;;5015170;28;20284;-77
2021/07/22 13:02:54;;;;;;;7.60;6.30;;;34.40;99.90;;;;;;5014374;28;20725;-77
2021/07/22 13:05:21;;;;;;;9.02;6.97;;;33.60;99.90;;;;;;4995346;28;20200;-78
2021/07/22 13:07:50;;;;;;;8.30;6.78;;;32.20;99.90;;;;;;4995054;28;20288;-78
2021/07/22 13:10:17;;;;;;;8.93;6.80;;;31.80;99.90;;;;;;4995364;28;20242;-77
2021/07/22 13:12:44;;;;;;;9.13;6.88;;;31.70;99.90;;;;;;4995791;28;20293;-77
2021/07/22 13:15:13;;;;;;;9.10;7.07;;;31.80;99.90;;;;;;4995366;28;20292;-77
2021/07/22 13:17:40;;;;;;;9.15;6.95;;;31.40;99.90;;;;;;4995200;28;20292;-77
2021/07/22 13:20:09;;;;;;;8.95;7.20;;;31.10;99.90;;;;;;4995482;28;20650;-77
2021/07/22 13:22:36;;;;;;;9.80;6.28;;;30.70;99.90;;;;;;4994963;28;20635;-77
2021/07/22 13:25:05;;;;;;;7.55;6.70;;;30.60;99.90;;;;;;4995614;28;20289;-77
2021/07/22 13:27:35;;;;;;;10.98;6.95;;;31.10;99.90;;;;;;4995127;28;20232;-77
2021/07/22 13:30:03;;;;;;;10.00;7.85;;;32.40;99.90;;;;;;4994911;28;20233;-77
2021/07/22 13:32:30;;;;;;;7.15;6.47;;;33.00;99.90;;;;;;4995023;28;20252;-77
2021/07/22 13:34:59;;;;;;;10.93;7.18;;;32.70;99.90;;;;;;5002696;28;20213;-77
2021/07/22 13:37:26;;;;;;;7.57;6.72;;;33.20;99.90;;;;;;5014561;28;20688;-77
2021/07/22 13:39:53;;;;;;;9.43;6.82;;;33.70;99.90;;;;;;5014553;28;20293;-78
2021/07/22 13:42:21;;;;;;;8.52;7.32;;;33.60;99.90;;;;;;5014537;28;20296;-77
2021/07/22 13:44:48;;;;;;;8.27;6.90;;;33.40;99.90;;;;;;5014542;28;20201;-78
2021/07/22 13:47:15;;;;;;;7.72;6.78;;;34.30;99.90;;;;;;5014388;28;20291;-77
2021/07/22 13:49:42;;;;;;;7.60;6.57;;;34.80;99.90;;;;;;5013554;28;20721;-77
2021/07/22 13:52:09;;;;;;;8.88;7.18;;;34.10;99.90;;;;;;5014172;28;20292;-77
2021/07/22 13:54:35;;;;;;;9.43;6.85;;;33.60;99.90;;;;;;5014381;28;20643;-77
2021/07/22 13:57:02;;;;;;;8.35;7.22;;;32.90;99.90;;;;;;5014453;28;20208;-77
2021/07/22 13:59:31;;;;;;;7.95;7.18;;;32.10;99.90;;;;;;5014225;28;20293;-77
2021/07/22 14:01:58;;;;;;;7.63;6.93;;;31.30;99.90;;;;;;5013713;28;20760;-77
2021/07/22 14:04:24;;;;;;;9.73;7.47;;;31.40;99.90;;;;;;5005002;28;20650;-77
2021/07/22 14:06:51;;;;;;;8.55;6.63;;;33.00;99.90;;;;;;4993495;28;20248;-77
2021/07/22 14:09:18;;;;;;;8.43;6.90;;;33.50;99.90;;;;;;4994132;28;20759;-77